Time;durP1;ratioP1;P1;durP2;ratioP2;P2;SDS_P1;SDS_P2;PMS_P1;PMS_P2;Temp;Humidity;BMP_temperature;BMP_pressure;BME280_temperature;BME280_humidity;BME280_pressure;Samples;Min_cycle;Max_cycle;Signal;HPM_P1;HPM_P2
2022/11/24 00:01:29;;;;;;;3.53;1.55;;;7.70;99.90;;;;;;5013251;28;20107;-68
2022/11/24 00:04:00;;;;;;;9.60;2.35;;;7.80;99.90;;;;;;5012824;28;20026;-68
2022/11/24 00:06:27;;;;;;;6.87;2.00;;;7.80;99.90;;;;;;5013295;28;20025;-68
2022/11/24 00:08:53;;;;;;;8.80;1.70;;;7.90;99.90;;;;;;5013168;28;20030;-68
2022/11/24 00:11:30;;;;;;;4.00;1.80;;;8.10;99.90;;;;;;5011796;28;20033;-68
2022/11/24 00:13:57;;;;;;;4.82;1.95;;;8.20;99.90;;;;;;5013406;28;20028;-68
2022/11/24 00:16:31;;;;;;;4.22;2.00;;;8.20;99.90;;;;;;5012940;28;20037;-68
2022/11/24 00:18:58;;;;;;;7.55;2.08;;;8.30;99.90;;;;;;5012999;28;20026;-68
2022/11/24 00:21:25;;;;;;;5.90;2.15;;;8.30;99.90;;;;;;5011813;28;20030;-68
2022/11/24 00:23:51;;;;;;;14.63;2.72;;;8.30;99.90;;;;;;5011673;28;20030;-68
2022/11/24 00:26:28;;;;;;;8.15;2.50;;;8.20;99.90;;;;;;5013031;28;20033;-68
2022/11/24 00:29:01;;;;;;;4.25;1.80;;;8.20;99.90;;;;;;5011894;28;20037;-68
2022/11/24 00:31:32;;;;;;;7.50;1.80;;;8.20;99.90;;;;;;5011717;28;20026;-68
2022/11/24 00:34:00;;;;;;;9.32;2.30;;;8.10;99.90;;;;;;5011730;28;20022;-68
2022/11/24 00:36:28;;;;;;;8.73;2.42;;;8.10;99.90;;;;;;5011981;28;20034;-68
2022/11/24 00:38:56;;;;;;;3.72;1.80;;;8.20;99.90;;;;;;5011912;28;20034;-68
2022/11/24 00:41:23;;;;;;;5.35;2.00;;;8.10;99.90;;;;;;5012853;28;20061;-68
2022/11/24 00:43:49;;;;;;;5.35;1.95;;;8.10;99.90;;;;;;5011943;28;20032;-68
2022/11/24 00:46:15;;;;;;;11.95;2.55;;;8.00;99.90;;;;;;5012839;28;20045;-68
2022/11/24 00:48:46;;;;;;;6.65;1.88;;;8.10;99.90;;;;;;5011824;28;20123;-68
2022/11/24 00:51:14;;;;;;;5.55;2.05;;;8.10;99.90;;;;;;5012733;28;20053;-68
2022/11/24 00:53:40;;;;;;;7.72;2.40;;;8.00;99.90;;;;;;5011703;28;20112;-68
2022/11/24 00:56:06;;;;;;;3.40;1.95;;;8.10;99.90;;;;;;5015583;28;20084;-68
2022/11/24 00:58:33;;;;;;;8.73;2.20;;;8.10;99.90;;;;;;5014866;28;20057;-68
2022/11/24 01:01:07;;;;;;;8.32;1.90;;;8.10;99.90;;;;;;5015201;28;20025;-68
2022/11/24 01:03:33;;;;;;;10.18;2.58;;;8.10;99.90;;;;;;5016035;28;20022;-68
2022/11/24 01:06:14;;;;;;;9.88;3.03;;;8.10;99.90;;;;;;5014975;28;20125;-68
2022/11/24 01:08:40;;;;;;;11.27;3.13;;;8.10;99.90;;;;;;5015509;28;20026;-68
2022/11/24 01:11:15;;;;;;;11.23;2.35;;;8.00;99.90;;;;;;5014600;28;20026;-68
2022/11/24 01:13:43;;;;;;;4.90;1.90;;;8.00;99.90;;;;;;5014665;28;20018;-68
2022/11/24 01:16:18;;;;;;;7.63;2.35;;;8.00;99.90;;;;;;5014543;28;20021;-68
2022/11/24 01:18:44;;;;;;;8.02;2.90;;;8.00;99.90;;;;;;5015674;28;20018;-68
2022/11/24 01:21:10;;;;;;;7.38;2.13;;;7.90;99.90;;;;;;5014710;28;20022;-68
2022/11/24 01:23:36;;;;;;;6.30;2.42;;;7.90;99.90;;;;;;5015305;28;20036;-68
2022/11/24 01:26:06;;;;;;;11.45;2.10;;;7.90;99.90;;;;;;5014442;28;20029;-68
2022/11/24 01:28:32;;;;;;;7.78;2.15;;;7.90;99.90;;;;;;5014209;28;20030;-68
2022/11/24 01:30:59;;;;;;;10.18;2.67;;;7.90;99.90;;;;;;5014192;28;20026;-68
2022/11/24 01:33:25;;;;;;;12.35;3.00;;;7.90;99.90;;;;;;5015478;28;20026;-68
2022/11/24 01:35:51;;;;;;;6.38;2.33;;;7.80;99.90;;;;;;5015997;28;20097;-68
2022/11/24 01:38:16;;;;;;;9.40;3.13;;;7.80;99.90;;;;;;5014429;28;20038;-68
2022/11/24 01:40:42;;;;;;;6.05;2.92;;;7.70;99.90;;;;;;5015344;28;20025;-68
2022/11/24 01:43:20;;;;;;;7.47;3.10;;;7.70;99.90;;;;;;5014635;28;20029;-68
2022/11/24 01:45:46;;;;;;;7.40;3.20;;;7.70;99.90;;;;;;5015768;28;20026;-68
2022/11/24 01:48:26;;;;;;;10.90;3.30;;;7.70;99.90;;;;;;5014138;28;20037;-68
2022/11/24 01:51:16;;;;;;;11.40;3.13;;;7.70;99.90;;;;;;5014199;28;20098;-68
2022/11/24 01:53:48;;;;;;;10.20;3.83;;;7.80;99.90;;;;;;5013952;28;20164;-68
2022/11/24 01:56:13;;;;;;;;;;;7.90;99.90;;;;;;5015135;28;20029;-68
2022/11/24 01:58:42;;;;;;;6.68;2.53;;;7.80;99.90;;;;;;5013646;28;19905;-68
2022/11/24 02:01:09;;;;;;;13.20;3.47;;;7.80;99.90;;;;;;5013609;28;20022;-68
2022/11/24 02:03:38;;;;;;;8.30;2.75;;;7.80;99.90;;;;;;5013618;28;20168;-68
2022/11/24 02:06:10;;;;;;;10.93;3.42;;;7.80;99.90;;;;;;5014834;28;20022;-68
2022/11/24 02:08:50;;;;;;;20.67;4.22;;;7.80;99.90;;;;;;5014246;28;20029;-68
2022/11/24 02:11:17;;;;;;;9.15;4.25;;;7.70;99.90;;;;;;5014685;28;20018;-68
2022/11/24 02:13:44;;;;;;;11.90;4.43;;;7.70;99.90;;;;;;5014734;28;20076;-68
2022/11/24 02:16:11;;;;;;;23.77;4.40;;;7.70;99.90;;;;;;5013484;28;20428;-68
2022/11/24 02:18:41;;;;;;;13.30;4.72;;;7.50;99.90;;;;;;5013373;28;20022;-68
2022/11/24 02:21:08;;;;;;;10.45;4.82;;;7.50;99.90;;;;;;5013312;28;20518;-68
2022/11/24 02:23:55;;;;;;;9.45;4.10;;;7.60;99.90;;;;;;5013339;28;20034;-68
2022/11/24 02:26:45;;;;;;;9.27;4.72;;;7.70;99.90;;;;;;5013194;28;20022;-68
2022/11/24 02:29:13;;;;;;;11.27;5.30;;;7.70;99.90;;;;;;5013118;28;20029;-68
2022/11/24 02:31:46;;;;;;;14.30;4.68;;;7.60;99.90;;;;;;5014005;28;20030;-68
2022/11/24 02:34:12;;;;;;;10.05;4.40;;;7.60;99.90;;;;;;5013150;28;20485;-68
2022/11/24 02:36:38;;;;;;;13.70;5.20;;;7.50;99.90;;;;;;5013863;28;20022;-68
2022/11/24 02:39:09;;;;;;;17.63;5.10;;;7.50;99.90;;;;;;5012844;28;20052;-68
2022/11/24 02:41:36;;;;;;;14.25;4.70;;;7.40;99.90;;;;;;5013142;28;20029;-68
2022/11/24 02:44:02;;;;;;;11.35;4.65;;;7.50;99.90;;;;;;5012952;28;20040;-68
2022/11/24 02:46:27;;;;;;;24.15;6.05;;;7.50;99.90;;;;;;5012975;28;20026;-68
2022/11/24 02:48:53;;;;;;;17.58;5.93;;;7.50;99.90;;;;;;5012741;28;20057;-68
2022/11/24 02:51:18;;;;;;;11.93;5.57;;;7.30;99.90;;;;;;5012684;28;20025;-68
2022/11/24 02:53:44;;;;;;;18.38;5.85;;;7.40;99.90;;;;;;5012976;28;20053;-68
2022/11/24 02:56:10;;;;;;;17.80;5.95;;;7.50;99.90;;;;;;5014251;28;20021;-68
2022/11/24 02:58:35;;;;;;;13.88;5.75;;;7.40;99.90;;;;;;5014168;28;20105;-68
2022/11/24 03:01:01;;;;;;;15.32;6.93;;;7.30;99.90;;;;;;5012663;28;20034;-68
2022/11/24 03:03:27;;;;;;;20.98;7.00;;;7.30;99.90;;;;;;5013412;28;20439;-68
2022/11/24 03:05:53;;;;;;;15.40;6.35;;;7.40;99.90;;;;;;5012882;28;20064;-68
2022/11/24 03:08:19;;;;;;;20.88;6.88;;;7.40;99.90;;;;;;5013779;28;20107;-68
2022/11/24 03:10:44;;;;;;;17.15;7.00;;;7.20;99.90;;;;;;5012456;28;20025;-68
2022/11/24 03:13:10;;;;;;;21.15;7.47;;;7.20;99.90;;;;;;5012468;28;20044;-68
2022/11/24 03:15:36;;;;;;;14.95;7.07;;;7.20;99.90;;;;;;5014241;28;20026;-68
2022/11/24 03:18:01;;;;;;;24.95;7.70;;;7.10;99.90;;;;;;5012099;28;20427;-68
2022/11/24 03:20:28;;;;;;;17.45;6.97;;;7.20;99.90;;;;;;5013624;28;20026;-68
2022/11/24 03:22:53;;;;;;;13.82;6.18;;;7.30;99.90;;;;;;5013521;28;20477;-68
2022/11/24 03:25:19;;;;;;;16.58;6.82;;;7.40;99.90;;;;;;5013302;28;20057;-68
2022/11/24 03:27:45;;;;;;;17.45;7.13;;;7.50;99.90;;;;;;5013408;28;20477;-68
2022/11/24 03:30:11;;;;;;;16.92;6.95;;;7.40;99.90;;;;;;5013728;28;20053;-68
2022/11/24 03:32:37;;;;;;;20.50;7.47;;;7.50;99.90;;;;;;5012121;28;20033;-68
2022/11/24 03:35:04;;;;;;;15.10;6.72;;;7.50;99.90;;;;;;5013688;28;20018;-68
2022/11/24 03:37:29;;;;;;;14.45;6.93;;;7.40;99.90;;;;;;5013364;28;20022;-68
2022/11/24 03:39:55;;;;;;;17.02;7.30;;;7.40;99.90;;;;;;5013603;28;20064;-68
2022/11/24 03:42:21;;;;;;;12.57;6.05;;;7.40;99.90;;;;;;5013273;28;20034;-68
2022/11/24 03:44:46;;;;;;;17.02;6.28;;;7.50;99.90;;;;;;5012372;28;20026;-68
2022/11/24 03:47:12;;;;;;;17.45;7.63;;;7.50;99.90;;;;;;5011869;28;20068;-68
2022/11/24 03:49:40;;;;;;;17.77;6.60;;;7.50;99.90;;;;;;5012115;28;20096;-68
2022/11/24 03:52:06;;;;;;;15.98;5.53;;;7.70;99.90;;;;;;5013265;28;20022;-68
2022/11/24 03:54:31;;;;;;;16.17;6.18;;;7.70;99.90;;;;;;5013230;28;20093;-68
2022/11/24 03:56:57;;;;;;;23.40;6.60;;;7.70;99.90;;;;;;5011879;28;20026;-68
2022/11/24 03:59:22;;;;;;;16.40;6.28;;;7.70;99.90;;;;;;5013187;28;20097;-68
2022/11/24 04:01:48;;;;;;;15.13;5.95;;;7.70;99.90;;;;;;5013402;28;20030;-68
2022/11/24 04:04:14;;;;;;;13.07;5.65;;;7.70;99.90;;;;;;5012195;28;20030;-68
2022/11/24 04:06:39;;;;;;;9.57;5.35;;;7.70;99.90;;;;;;5011824;28;20029;-68
2022/11/24 04:09:06;;;;;;;16.38;6.82;;;7.70;99.90;;;;;;5013557;28;20036;-68
2022/11/24 04:14:15;;;;;;;14.98;6.60;;;7.70;99.90;;;;;;5013342;28;20033;-68
2022/11/24 04:16:40;;;;;;;16.52;6.78;;;7.70;99.90;;;;;;5012588;28;20026;-68
2022/11/24 04:19:06;;;;;;;17.40;6.22;;;7.60;99.90;;;;;;5011651;28;20076;-68
2022/11/24 04:21:32;;;;;;;17.45;6.07;;;7.70;99.90;;;;;;5011709;28;20170;-68
2022/11/24 04:23:57;;;;;;;20.00;7.00;;;7.60;99.90;;;;;;5013008;28;20033;-68
2022/11/24 04:26:23;;;;;;;19.80;5.50;;;7.60;99.90;;;;;;5012496;28;20041;-68
2022/11/24 04:28:48;;;;;;;11.98;5.20;;;7.60;99.90;;;;;;5011478;28;20017;-68
2022/11/24 04:31:14;;;;;;;12.10;5.30;;;7.50;99.90;;;;;;5016151;28;20062;-68
2022/11/24 04:33:39;;;;;;;15.80;5.47;;;7.40;99.90;;;;;;5015867;28;20109;-68
2022/11/24 04:36:05;;;;;;;17.88;7.13;;;7.30;99.90;;;;;;5015278;28;20064;-68
2022/11/24 04:38:31;;;;;;;17.02;6.05;;;7.30;99.90;;;;;;5039277;22;20050;-67
2022/11/24 04:41:01;;;;;;;19.35;6.07;;;7.30;99.90;;;;;;5015804;28;20037;-67
2022/11/24 04:43:27;;;;;;;13.30;5.32;;;7.30;99.90;;;;;;5016863;28;20034;-67
2022/11/24 04:45:52;;;;;;;15.20;6.43;;;7.40;99.90;;;;;;5015397;28;20038;-67
2022/11/24 04:48:18;;;;;;;11.52;5.47;;;7.40;99.90;;;;;;5015149;28;20033;-67
2022/11/24 04:50:43;;;;;;;15.60;6.18;;;7.30;99.90;;;;;;5015192;28;20030;-67
2022/11/24 04:53:10;;;;;;;17.55;6.45;;;7.30;99.90;;;;;;5015404;28;20014;-67
2022/11/24 04:55:38;;;;;;;21.70;6.40;;;7.30;99.90;;;;;;5015332;28;20026;-67
2022/11/24 04:58:05;;;;;;;18.70;6.10;;;7.30;99.90;;;;;;5015136;28;20022;-67
2022/11/24 05:00:31;;;;;;;15.73;6.68;;;7.30;99.90;;;;;;5015259;28;20022;-67
2022/11/24 05:02:56;;;;;;;21.08;6.60;;;7.30;99.90;;;;;;5014878;28;20037;-67
2022/11/24 05:05:22;;;;;;;15.30;6.30;;;7.40;99.90;;;;;;5014972;28;20057;-67
2022/11/24 05:07:47;;;;;;;17.45;6.18;;;7.50;99.90;;;;;;5015228;28;20097;-67
2022/11/24 05:12:58;;;;;;;12.63;5.57;;;7.50;99.90;;;;;;5015881;28;20052;-67
2022/11/24 05:15:24;;;;;;;14.73;5.03;;;7.50;99.90;;;;;;5015527;28;20045;-67
2022/11/24 05:17:50;;;;;;;11.90;4.93;;;7.60;99.90;;;;;;5014524;28;20033;-67
2022/11/24 05:20:17;;;;;;;14.05;5.43;;;7.60;99.90;;;;;;5016013;28;20022;-67
2022/11/24 05:22:43;;;;;;;13.00;4.70;;;7.60;99.90;;;;;;5016059;28;20121;-67
2022/11/24 05:25:09;;;;;;;14.38;5.40;;;7.50;99.90;;;;;;5014437;28;20033;-67
2022/11/24 05:27:34;;;;;;;17.42;5.78;;;7.60;99.90;;;;;;5016065;28;20026;-67
2022/11/24 05:30:00;;;;;;;16.48;5.07;;;7.50;99.90;;;;;;5015335;28;20080;-67
2022/11/24 05:32:25;;;;;;;10.02;4.70;;;7.50;99.90;;;;;;5015940;28;20025;-67
2022/11/24 05:34:52;;;;;;;9.55;5.03;;;7.40;99.90;;;;;;5014415;28;20017;-67
2022/11/24 05:37:18;;;;;;;11.02;5.22;;;7.40;99.90;;;;;;5014616;28;20022;-67
2022/11/24 05:39:44;;;;;;;12.55;5.47;;;7.50;99.90;;;;;;5015553;28;20094;-67
2022/11/24 05:44:54;;;;;;;15.40;5.35;;;7.50;99.90;;;;;;5015661;28;20107;-67
2022/11/24 05:47:20;;;;;;;13.55;5.78;;;7.40;99.90;;;;;;5014053;28;20026;-67
2022/11/24 05:49:46;;;;;;;18.65;6.80;;;7.40;99.90;;;;;;5013936;28;20072;-67
2022/11/24 05:52:11;;;;;;;12.55;6.60;;;7.40;99.90;;;;;;5015039;28;20112;-67
2022/11/24 05:54:37;;;;;;;18.27;6.45;;;7.50;99.90;;;;;;5014148;28;20026;-67
2022/11/24 05:57:03;;;;;;;21.13;7.28;;;7.50;99.90;;;;;;5015092;28;20026;-67
2022/11/24 05:59:28;;;;;;;15.90;7.38;;;7.30;99.90;;;;;;5014883;28;20037;-67
2022/11/24 06:01:54;;;;;;;15.70;6.28;;;7.30;99.90;;;;;;5015209;28;20022;-67
2022/11/24 06:04:20;;;;;;;15.13;5.32;;;7.30;99.90;;;;;;5013919;28;20496;-67
2022/11/24 06:06:46;;;;;;;8.73;5.30;;;7.40;99.90;;;;;;5013731;28;20018;-67
2022/11/24 06:09:11;;;;;;;16.75;6.40;;;7.40;99.90;;;;;;5013678;28;20033;-67
2022/11/24 06:11:37;;;;;;;11.55;4.82;;;7.50;99.90;;;;;;5014979;28;20040;-67
2022/11/24 06:14:02;;;;;;;13.38;4.93;;;7.70;99.90;;;;;;5013437;28;20120;-67
2022/11/24 06:16:28;;;;;;;17.08;5.07;;;7.70;99.90;;;;;;5014675;28;20025;-67
2022/11/24 06:18:53;;;;;;;16.67;4.82;;;7.70;99.90;;;;;;5014569;28;20064;-67
2022/11/24 06:21:19;;;;;;;12.25;4.10;;;7.70;99.90;;;;;;5013509;28;20026;-67
2022/11/24 06:23:47;;;;;;;11.43;4.50;;;7.70;99.90;;;;;;5013393;28;20484;-67
2022/11/24 06:26:13;;;;;;;16.67;4.80;;;7.70;99.90;;;;;;5013337;28;20034;-67
2022/11/24 06:28:39;;;;;;;22.48;4.63;;;7.70;99.90;;;;;;5013220;28;20036;-67
2022/11/24 06:31:05;;;;;;;15.77;4.13;;;7.70;99.90;;;;;;5013125;28;20026;-67
2022/11/24 06:33:35;;;;;;;20.50;3.92;;;7.70;99.90;;;;;;5013472;28;20121;-67
2022/11/24 06:36:04;;;;;;;14.00;3.72;;;7.70;99.90;;;;;;5013174;28;20025;-67
2022/11/24 06:38:30;;;;;;;8.70;3.40;;;7.70;99.90;;;;;;5013254;28;20385;-67
2022/11/24 06:40:59;;;;;;;12.68;3.67;;;7.70;99.90;;;;;;5014375;28;20068;-67
2022/11/24 06:43:26;;;;;;;16.33;4.05;;;7.70;99.90;;;;;;5013431;28;20504;-67
2022/11/24 06:45:52;;;;;;;20.75;4.22;;;7.80;99.90;;;;;;5014389;28;20021;-67
2022/11/24 06:48:17;;;;;;;14.00;3.72;;;7.70;99.90;;;;;;5014253;28;20037;-67
2022/11/24 06:50:43;;;;;;;13.18;4.85;;;7.70;99.90;;;;;;5013640;28;20381;-67
2022/11/24 06:53:08;;;;;;;18.85;5.43;;;7.70;99.90;;;;;;5013669;28;20412;-67
2022/11/24 06:55:34;;;;;;;18.20;4.18;;;7.70;99.90;;;;;;5014760;28;20032;-67
2022/11/24 06:58:00;;;;;;;17.02;4.60;;;7.80;99.90;;;;;;5014074;28;20081;-67
2022/11/24 07:00:28;;;;;;;14.32;4.75;;;7.80;99.90;;;;;;5013110;28;20022;-67
2022/11/24 07:02:53;;;;;;;13.60;4.10;;;7.80;99.90;;;;;;5013043;28;20124;-67
2022/11/24 07:05:19;;;;;;;18.20;4.32;;;7.70;99.90;;;;;;5013845;28;20049;-67
2022/11/24 07:07:44;;;;;;;19.80;4.85;;;7.80;99.90;;;;;;5012756;28;20108;-67
2022/11/24 07:10:10;;;;;;;21.23;3.88;;;7.90;99.90;;;;;;5012662;28;20026;-67
2022/11/24 07:12:35;;;;;;;12.07;4.43;;;7.90;99.90;;;;;;5013683;28;20037;-67
2022/11/24 07:15:01;;;;;;;11.77;3.78;;;8.00;99.90;;;;;;5012537;28;20176;-67
2022/11/24 07:17:26;;;;;;;14.85;3.97;;;8.00;99.90;;;;;;5013740;28;20076;-67
2022/11/24 07:19:52;;;;;;;19.77;5.72;;;8.00;99.90;;;;;;5014032;28;20108;-67
2022/11/24 07:22:17;;;;;;;20.60;4.15;;;8.00;99.90;;;;;;5012776;28;20034;-67
2022/11/24 07:24:43;;;;;;;14.70;4.65;;;8.10;99.90;;;;;;5012499;28;20022;-67
2022/11/24 07:27:09;;;;;;;21.25;4.10;;;8.10;99.90;;;;;;5012913;28;20026;-67
2022/11/24 07:29:34;;;;;;;11.48;3.65;;;8.20;99.90;;;;;;5013118;28;20045;-67
2022/11/24 07:32:00;;;;;;;16.33;3.70;;;8.20;99.90;;;;;;5012230;28;20029;-67
2022/11/24 07:34:25;;;;;;;15.57;4.43;;;8.40;99.90;;;;;;5013718;28;20018;-67
2022/11/24 07:36:51;;;;;;;17.48;4.00;;;8.50;99.90;;;;;;5012522;28;20018;-67
2022/11/24 07:39:16;;;;;;;13.52;3.45;;;8.60;99.90;;;;;;5012162;28;20037;-67
2022/11/24 07:41:42;;;;;;;11.35;3.67;;;8.70;99.90;;;;;;5012610;28;20028;-67
2022/11/24 07:44:07;;;;;;;13.68;3.50;;;8.80;99.90;;;;;;5013443;28;20034;-67
2022/11/24 07:46:33;;;;;;;12.43;3.58;;;8.90;99.90;;;;;;5013564;28;20026;-67
2022/11/24 07:48:58;;;;;;;18.50;4.53;;;8.90;99.90;;;;;;5011990;28;20068;-67
2022/11/24 07:51:24;;;;;;;12.30;3.45;;;9.00;99.90;;;;;;5012095;28;20065;-67
2022/11/24 07:53:50;;;;;;;12.13;4.32;;;8.90;99.90;;;;;;5012486;28;20053;-67
2022/11/24 07:56:15;;;;;;;19.90;3.78;;;8.90;99.90;;;;;;5012350;28;20057;-67
2022/11/24 07:58:41;;;;;;;9.55;4.15;;;9.00;99.90;;;;;;5012745;28;20048;-67
2022/11/24 08:01:15;;;;;;;13.20;4.43;;;9.00;99.90;;;;;;5012459;28;20103;-67
2022/11/24 08:03:41;;;;;;;15.70;4.25;;;9.00;99.90;;;;;;5014404;28;20030;-67
2022/11/24 08:06:07;;;;;;;23.85;4.88;;;9.10;99.90;;;;;;5017389;28;20033;-67
2022/11/24 08:08:32;;;;;;;18.30;4.50;;;9.00;99.90;;;;;;5016454;28;20251;-67
2022/11/24 08:11:06;;;;;;;13.98;4.43;;;9.10;99.90;;;;;;5016085;28;20028;-67
2022/11/24 08:13:33;;;;;;;19.83;4.10;;;9.10;99.90;;;;;;5015959;28;20108;-67
2022/11/24 08:16:02;;;;;;;14.60;4.05;;;9.00;99.90;;;;;;5017156;28;20388;-67
2022/11/24 08:18:27;;;;;;;18.30;4.03;;;8.90;99.90;;;;;;5017015;28;20049;-67
2022/11/24 08:20:53;;;;;;;18.05;4.18;;;8.80;99.90;;;;;;5016015;28;20034;-67
2022/11/24 08:23:19;;;;;;;18.17;4.22;;;8.70;99.90;;;;;;5017216;28;20045;-67
2022/11/24 08:25:44;;;;;;;14.30;4.88;;;8.80;99.90;;;;;;5016181;28;20064;-67
2022/11/24 08:28:10;;;;;;;20.88;4.15;;;8.80;99.90;;;;;;5015459;28;20022;-67
2022/11/24 08:30:35;;;;;;;14.02;4.57;;;8.90;99.90;;;;;;5016849;28;20366;-67
2022/11/24 08:33:01;;;;;;;18.00;4.63;;;9.00;99.90;;;;;;5015467;28;20037;-67
2022/11/24 08:35:27;;;;;;;13.70;3.90;;;8.90;99.90;;;;;;5015356;28;20059;-67
2022/11/24 08:37:53;;;;;;;18.60;4.15;;;8.90;99.90;;;;;;5016615;28;20053;-67
2022/11/24 08:40:19;;;;;;;16.23;4.75;;;8.90;99.90;;;;;;5017104;28;20101;-67
2022/11/24 08:42:44;;;;;;;16.38;4.40;;;8.90;99.90;;;;;;5016744;28;20022;-67
2022/11/24 08:45:10;;;;;;;21.42;5.68;;;8.80;99.90;;;;;;5015697;28;20117;-67
2022/11/24 08:47:36;;;;;;;19.08;4.80;;;8.90;99.90;;;;;;5015111;28;20029;-67
2022/11/24 08:50:01;;;;;;;24.70;5.90;;;9.00;99.90;;;;;;5015086;28;20034;-67
2022/11/24 08:52:27;;;;;;;22.67;4.65;;;9.00;99.90;;;;;;5015008;28;20030;-67
2022/11/24 08:54:53;;;;;;;19.95;4.72;;;9.10;99.90;;;;;;5016700;28;20058;-67
2022/11/24 08:57:18;;;;;;;18.20;4.38;;;9.10;99.90;;;;;;5016323;28;20088;-67
2022/11/24 08:59:45;;;;;;;12.45;3.58;;;9.10;99.90;;;;;;5014943;28;20032;-67
2022/11/24 09:02:12;;;;;;;17.20;4.60;;;9.20;99.90;;;;;;5015784;28;20022;-67
2022/11/24 09:04:38;;;;;;;18.17;4.93;;;9.30;99.90;;;;;;5015208;28;20064;-67
2022/11/24 09:07:04;;;;;;;12.15;3.38;;;9.40;99.90;;;;;;5016174;28;20034;-67
2022/11/24 09:09:29;;;;;;;15.45;4.78;;;9.50;99.90;;;;;;5014733;28;20099;-67
2022/11/24 09:11:55;;;;;;;12.90;3.53;;;9.50;99.90;;;;;;5015791;28;20501;-67
2022/11/24 09:14:21;;;;;;;17.23;3.75;;;9.50;99.90;;;;;;5014941;28;20022;-67
2022/11/24 09:16:46;;;;;;;12.02;4.00;;;9.60;99.90;;;;;;5013833;28;20022;-66
2022/11/24 09:19:12;;;;;;;24.77;4.18;;;9.70;99.90;;;;;;5016098;28;20057;-67
2022/11/24 09:21:37;;;;;;;9.13;3.13;;;9.70;99.90;;;;;;5014574;28;20022;-67
2022/11/24 09:24:05;;;;;;;13.55;3.60;;;9.80;99.90;;;;;;5014565;28;20030;-67
2022/11/24 09:26:33;;;;;;;16.17;4.30;;;9.90;99.90;;;;;;5014445;28;20079;-67
2022/11/24 09:29:01;;;;;;;16.73;3.70;;;9.90;99.90;;;;;;5015539;28;20040;-67
2022/11/24 09:31:33;;;;;;;14.73;3.33;;;10.10;99.90;;;;;;5015580;28;20104;-67
2022/11/24 09:34:00;;;;;;;14.85;2.97;;;10.10;99.90;;;;;;5014402;28;20051;-67
2022/11/24 09:36:27;;;;;;;22.83;3.47;;;10.20;99.90;;;;;;5014546;28;20033;-67
2022/11/24 09:38:53;;;;;;;17.95;4.53;;;10.30;99.90;;;;;;5014072;28;20080;-67
2022/11/24 09:41:34;;;;;;;13.18;2.67;;;10.40;99.90;;;;;;5014139;28;20057;-67
2022/11/24 09:44:38;;;;;;;6.65;2.30;;;10.40;99.90;;;;;;5015327;28;20036;-67
2022/11/24 09:47:31;;;;;;;10.55;2.65;;;10.40;99.90;;;;;;5014163;28;20036;-67
2022/11/24 09:50:01;;;;;;;12.40;3.72;;;10.40;99.90;;;;;;5015355;28;20025;-67
2022/11/24 09:53:02;;;;;;;8.48;2.28;;;10.50;99.90;;;;;;5014062;28;20029;-67
2022/11/24 09:55:34;;;;;;;13.85;3.35;;;10.60;99.90;;;;;;5015462;28;20026;-67
2022/11/24 09:58:11;;;;;;;;;;;10.70;99.90;;;;;;5015573;28;20022;-67
2022/11/24 10:00:37;;;;;;;10.73;3.15;;;10.90;99.90;;;;;;5015348;28;20323;-67
2022/11/24 10:03:04;;;;;;;11.13;3.20;;;11.10;99.90;;;;;;5013911;28;20032;-67
2022/11/24 10:05:34;;;;;;;12.63;2.67;;;11.10;99.90;;;;;;5015048;28;20129;-67
2022/11/24 10:08:22;;;;;;;17.88;2.38;;;11.10;99.90;;;;;;5015092;28;20026;-67
2022/11/24 10:10:56;;;;;;;15.85;2.80;;;11.00;99.90;;;;;;5015220;28;20036;-67
2022/11/24 10:13:45;;;;;;;15.13;2.97;;;10.90;99.90;;;;;;5015044;28;20112;-67
2022/11/24 10:16:41;;;;;;;10.77;2.28;;;10.80;99.90;;;;;;5014884;28;20117;-67
2022/11/24 10:19:58;;;;;;;11.80;2.30;;;10.70;99.90;;;;;;5008734;28;20030;-67
2022/11/24 10:22:44;;;;;;;12.02;2.58;;;10.70;99.90;;;;;;4973668;28;20034;-67
2022/11/24 10:25:22;;;;;;;12.02;2.55;;;10.70;99.90;;;;;;4957562;28;20135;-67
2022/11/24 10:27:54;;;;;;;15.13;2.55;;;10.80;99.90;;;;;;4957874;28;20118;-67
2022/11/24 10:30:22;;;;;;;11.85;2.45;;;11.00;99.90;;;;;;4957292;28;20031;-67
2022/11/24 10:33:18;;;;;;;7.30;2.30;;;10.90;99.90;;;;;;4957240;28;20044;-67
2022/11/24 10:36:00;;;;;;;19.20;2.67;;;10.90;99.90;;;;;;4953179;28;20133;-67
2022/11/24 10:38:40;;;;;;;9.77;2.85;;;10.90;99.90;;;;;;4957520;28;20043;-66
2022/11/24 10:41:22;;;;;;;16.95;2.85;;;11.00;99.90;;;;;;4957388;28;20393;-66
2022/11/24 10:43:48;;;;;;;18.10;4.03;;;11.00;99.90;;;;;;4957086;28;20495;-66
2022/11/24 10:46:24;;;;;;;8.40;2.58;;;10.90;99.90;;;;;;4973308;28;20125;-66
2022/11/24 10:48:55;;;;;;;8.80;2.28;;;10.80;99.90;;;;;;4956950;28;20487;-66
2022/11/24 10:51:26;;;;;;;13.18;2.00;;;10.80;99.90;;;;;;4957003;28;20042;-66
2022/11/24 10:53:56;;;;;;;7.13;2.33;;;10.80;99.90;;;;;;4973224;28;20031;-66
2022/11/24 10:56:22;;;;;;;11.38;3.30;;;10.80;99.90;;;;;;4956774;28;20031;-66
2022/11/24 10:58:48;;;;;;;4.85;1.20;;;10.80;99.90;;;;;;5004118;28;20068;-66
2022/11/24 11:01:13;;;;;;;8.65;1.77;;;10.80;99.90;;;;;;5012658;28;20030;-66
2022/11/24 11:03:57;;;;;;;7.05;1.90;;;10.90;99.90;;;;;;5012603;28;20026;-66
2022/11/24 11:06:24;;;;;;;10.23;1.50;;;10.70;99.90;;;;;;5013202;28;20026;-66
2022/11/24 11:09:07;;;;;;;13.20;2.58;;;10.60;99.90;;;;;;5012626;28;20037;-66
2022/11/24 11:11:34;;;;;;;8.73;1.38;;;10.70;99.90;;;;;;5013391;28;20053;-66
2022/11/24 11:14:03;;;;;;;10.88;1.67;;;11.10;99.90;;;;;;5014105;28;20033;-66
2022/11/24 11:16:36;;;;;;;7.90;1.23;;;11.40;99.90;;;;;;5012805;28;20432;-66
2022/11/24 11:19:05;;;;;;;11.82;2.97;;;11.50;99.90;;;;;;5013648;28;20071;-66
2022/11/24 11:21:36;;;;;;;6.50;1.60;;;11.60;99.90;;;;;;5012371;28;20030;-66
2022/11/24 11:24:13;;;;;;;4.40;1.58;;;11.60;99.90;;;;;;5012766;28;20025;-66
2022/11/24 11:26:41;;;;;;;5.57;1.00;;;11.50;99.90;;;;;;5013212;28;20034;-66
2022/11/24 11:29:06;;;;;;;12.13;2.03;;;11.30;99.90;;;;;;5012668;28;20037;-66
2022/11/24 11:31:36;;;;;;;7.07;1.50;;;11.30;99.90;;;;;;5014069;28;20022;-66
2022/11/24 11:34:17;;;;;;;8.20;1.52;;;11.40;99.90;;;;;;5013039;28;20018;-66
2022/11/24 11:36:45;;;;;;;8.60;1.40;;;11.40;99.90;;;;;;5012164;28;20037;-66
2022/11/24 11:39:19;;;;;;;10.07;1.75;;;11.50;99.90;;;;;;5013182;28;20030;-66
2022/11/24 11:41:49;;;;;;;9.13;1.40;;;11.40;99.90;;;;;;5012270;28;20112;-66
2022/11/24 11:44:34;;;;;;;5.93;1.38;;;11.40;99.90;;;;;;5012191;28;20029;-67
2022/11/24 11:47:07;;;;;;;9.23;1.27;;;11.50;99.90;;;;;;5012504;28;20022;-67
2022/11/24 11:49:36;;;;;;;6.57;1.38;;;11.40;99.90;;;;;;5013321;28;20033;-67
2022/11/24 11:52:07;;;;;;;6.75;1.35;;;11.50;99.90;;;;;;5013881;28;20026;-67
2022/11/24 11:55:11;;;;;;;4.68;1.20;;;11.40;99.90;;;;;;5013506;28;20406;-67
2022/11/24 11:58:06;;;;;;;8.02;1.30;;;11.40;99.90;;;;;;4972120;28;20034;-67
2022/11/24 12:00:38;;;;;;;8.30;1.88;;;11.40;99.90;;;;;;4956092;28;20058;-67
2022/11/24 12:03:33;;;;;;;9.65;1.80;;;11.30;99.90;;;;;;4956288;28;20073;-67
2022/11/24 12:06:35;;;;;;;12.57;1.98;;;11.20;99.90;;;;;;4956707;28;20034;-67
2022/11/24 12:09:08;;;;;;;6.33;1.57;;;11.40;99.90;;;;;;4955949;28;20130;-67
2022/11/24 12:11:42;;;;;;;4.60;1.42;;;11.70;99.90;;;;;;4972231;28;20290;-67
2022/11/24 12:14:20;;;;;;;10.18;1.92;;;11.80;99.90;;;;;;4955904;28;20081;-67
2022/11/24 12:16:51;;;;;;;8.30;1.55;;;11.90;99.90;;;;;;4956628;28;20118;-67
2022/11/24 12:19:45;;;;;;;8.65;1.60;;;11.90;99.90;;;;;;4971788;28;20494;-67
2022/11/24 12:22:41;;;;;;;9.35;1.50;;;12.00;99.90;;;;;;4956165;28;20031;-67
2022/11/24 12:25:18;;;;;;;9.43;1.55;;;12.10;99.90;;;;;;4956759;28;20034;-67
2022/11/24 12:27:46;;;;;;;13.98;2.55;;;12.00;99.90;;;;;;4956169;28;20042;-67
2022/11/24 12:30:17;;;;;;;5.15;1.30;;;11.80;99.90;;;;;;4955700;28;20180;-67
2022/11/24 12:32:50;;;;;;;7.57;1.30;;;11.70;99.90;;;;;;4971819;28;20075;-67
2022/11/24 12:35:36;;;;;;;10.38;1.85;;;11.60;99.90;;;;;;5003195;28;20127;-67
2022/11/24 12:38:05;;;;;;;3.60;1.17;;;11.60;99.90;;;;;;5011579;28;20030;-67
2022/11/24 12:41:08;;;;;;;9.55;1.75;;;11.60;99.90;;;;;;5012460;28;20022;-67
2022/11/24 12:43:39;;;;;;;4.65;1.38;;;11.50;99.90;;;;;;5012868;28;20029;-67
2022/11/24 12:46:26;;;;;;;4.80;1.53;;;11.50;99.90;;;;;;5011655;28;20026;-67
2022/11/24 12:48:55;;;;;;;10.13;1.90;;;11.50;99.90;;;;;;5011433;28;20301;-67
2022/11/24 12:51:28;;;;;;;7.82;1.60;;;11.60;99.90;;;;;;5014760;28;20022;-67
2022/11/24 12:53:56;;;;;;;9.90;2.08;;;11.60;99.90;;;;;;5015106;28;20129;-67
2022/11/24 12:56:51;;;;;;;5.43;2.22;;;11.70;99.90;;;;;;5016534;28;20054;-67
2022/11/24 12:59:32;;;;;;;8.60;2.95;;;11.70;99.90;;;;;;5014905;28;20481;-67
2022/11/24 13:02:15;;;;;;;12.63;3.53;;;11.50;99.90;;;;;;5014957;28;20026;-67
2022/11/24 13:04:50;;;;;;;15.82;3.55;;;11.50;99.90;;;;;;5014904;28;20026;-67
2022/11/24 13:07:20;;;;;;;11.20;3.15;;;11.50;99.90;;;;;;5015089;28;20432;-67
2022/11/24 13:10:24;;;;;;;10.50;2.03;;;11.50;99.90;;;;;;5016017;28;20018;-67